sensor_id;sensor_type;location;lat;lon;timestamp;pressure;altitude;pressure_sealevel;temperature;humidity
11692;BME280;33659;42.672;23.354;2023-05-08T00:00:28;94527.13;;;17.52;51.12
11692;BME280;33659;42.672;23.354;2023-05-08T00:02:55;94525.56;;;17.51;50.89
11692;BME280;33659;42.672;23.354;2023-05-08T00:05:22;94528.59;;;17.50;50.75
11692;BME280;33659;42.672;23.354;2023-05-08T00:07:48;94531.19;;;17.43;50.87
11692;BME280;33659;42.672;23.354;2023-05-08T00:10:17;94531.50;;;17.38;50.96
11692;BME280;33659;42.672;23.354;2023-05-08T00:12:44;94532.59;;;17.29;51.08
11692;BME280;33659;42.672;23.354;2023-05-08T00:15:11;94523.09;;;17.21;51.24
11692;BME280;33659;42.672;23.354;2023-05-08T00:17:37;94534.44;;;17.22;51.39
11692;BME280;33659;42.672;23.354;2023-05-08T00:20:05;94536.31;;;17.25;51.23
11692;BME280;33659;42.672;23.354;2023-05-08T00:22:33;94531.03;;;17.21;51.09
11692;BME280;33659;42.672;23.354;2023-05-08T00:24:59;94535.06;;;17.08;51.27
11692;BME280;33659;42.672;23.354;2023-05-08T00:27:28;94529.31;;;16.99;51.75
11692;BME280;33659;42.672;23.354;2023-05-08T00:29:55;94534.47;;;16.85;52.20
11692;BME280;33659;42.672;23.354;2023-05-08T00:32:22;94538.84;;;16.70;52.38
11692;BME280;33659;42.672;23.354;2023-05-08T00:34:49;94548.72;;;16.46;53.09
11692;BME280;33659;42.672;23.354;2023-05-08T00:37:16;94540.53;;;16.21;53.84
11692;BME280;33659;42.672;23.354;2023-05-08T00:39:42;94538.19;;;16.16;54.24
11692;BME280;33659;42.672;23.354;2023-05-08T00:42:09;94543.72;;;16.04;54.64
11692;BME280;33659;42.672;23.354;2023-05-08T00:44:37;94541.09;;;16.08;54.52
11692;BME280;33659;42.672;23.354;2023-05-08T00:47:04;94531.63;;;16.03;54.35
11692;BME280;33659;42.672;23.354;2023-05-08T00:49:31;94531.75;;;16.10;54.35
11692;BME280;33659;42.672;23.354;2023-05-08T00:52:00;94547.19;;;16.12;54.46
11692;BME280;33659;42.672;23.354;2023-05-08T00:54:28;94545.00;;;16.17;53.86
11692;BME280;33659;42.672;23.354;2023-05-08T00:56:55;94545.00;;;16.17;53.80
11692;BME280;33659;42.672;23.354;2023-05-08T00:59:23;94550.34;;;16.24;54.13
11692;BME280;33659;42.672;23.354;2023-05-08T01:01:52;94539.63;;;16.40;53.55
11692;BME280;33659;42.672;23.354;2023-05-08T01:04:21;94546.13;;;16.50;53.55
11692;BME280;33659;42.672;23.354;2023-05-08T01:06:50;94552.16;;;16.50;53.29
11692;BME280;33659;42.672;23.354;2023-05-08T01:09:17;94549.25;;;16.59;52.93
11692;BME280;33659;42.672;23.354;2023-05-08T01:11:47;94553.44;;;16.64;52.98
11692;BME280;33659;42.672;23.354;2023-05-08T01:14:19;94553.88;;;16.69;52.75
11692;BME280;33659;42.672;23.354;2023-05-08T01:16:55;94555.34;;;16.67;52.62
11692;BME280;33659;42.672;23.354;2023-05-08T01:19:40;94550.16;;;16.74;52.64
11692;BME280;33659;42.672;23.354;2023-05-08T01:22:17;94548.34;;;16.78;52.85
11692;BME280;33659;42.672;23.354;2023-05-08T01:30:58;94548.09;;;16.57;53.71
11692;BME280;33659;42.672;23.354;2023-05-08T01:33:32;94550.72;;;16.57;54.83
11692;BME280;33659;42.672;23.354;2023-05-08T01:36:10;94549.09;;;16.45;54.70
11692;BME280;33659;42.672;23.354;2023-05-08T01:38:51;94547.31;;;16.22;55.34
11692;BME280;33659;42.672;23.354;2023-05-08T01:41:25;94543.28;;;16.02;56.01
11692;BME280;33659;42.672;23.354;2023-05-08T01:43:56;94549.09;;;15.85;56.87
11692;BME280;33659;42.672;23.354;2023-05-08T01:46:31;94549.25;;;15.69;57.63
11692;BME280;33659;42.672;23.354;2023-05-08T01:49:04;94538.94;;;15.60;58.03
11692;BME280;33659;42.672;23.354;2023-05-08T01:51:36;94537.72;;;15.54;59.23
11692;BME280;33659;42.672;23.354;2023-05-08T01:54:07;94533.69;;;15.60;59.36
11692;BME280;33659;42.672;23.354;2023-05-08T01:56:35;94536.13;;;15.73;59.13
11692;BME280;33659;42.672;23.354;2023-05-08T01:59:04;94528.03;;;15.85;58.95
11692;BME280;33659;42.672;23.354;2023-05-08T02:01:32;94539.06;;;15.94;58.88
11692;BME280;33659;42.672;23.354;2023-05-08T02:04:02;94539.19;;;16.05;58.69
11692;BME280;33659;42.672;23.354;2023-05-08T02:06:31;94537.84;;;16.18;58.29
11692;BME280;33659;42.672;23.354;2023-05-08T02:08:58;94543.91;;;16.22;58.08
11692;BME280;33659;42.672;23.354;2023-05-08T02:11:28;94539.38;;;16.19;57.98
11692;BME280;33659;42.672;23.354;2023-05-08T02:13:57;94525.44;;;16.18;58.03
11692;BME280;33659;42.672;23.354;2023-05-08T02:16:25;94539.09;;;16.28;58.13
11692;BME280;33659;42.672;23.354;2023-05-08T02:18:53;94537.63;;;16.30;58.38
11692;BME280;33659;42.672;23.354;2023-05-08T02:21:23;94546.63;;;16.29;58.57
11692;BME280;33659;42.672;23.354;2023-05-08T02:23:51;94543.59;;;16.27;58.65
11692;BME280;33659;42.672;23.354;2023-05-08T02:26:19;94541.28;;;16.22;58.93
11692;BME280;33659;42.672;23.354;2023-05-08T02:28:48;94541.28;;;16.22;58.88
11692;BME280;33659;42.672;23.354;2023-05-08T02:31:16;94538.31;;;16.23;58.86
11692;BME280;33659;42.672;23.354;2023-05-08T02:33:44;94546.59;;;16.25;58.09
11692;BME280;33659;42.672;23.354;2023-05-08T02:36:14;94542.16;;;16.30;57.97
11692;BME280;33659;42.672;23.354;2023-05-08T02:38:45;94540.28;;;16.30;58.19
11692;BME280;33659;42.672;23.354;2023-05-08T02:41:14;94549.59;;;16.24;57.48
11692;BME280;33659;42.672;23.354;2023-05-08T02:43:44;94546.59;;;16.25;56.82
11692;BME280;33659;42.672;23.354;2023-05-08T02:46:13;94542.72;;;16.16;57.04
11692;BME280;33659;42.672;23.354;2023-05-08T02:48:48;94544.19;;;16.13;57.23
11692;BME280;33659;42.672;23.354;2023-05-08T02:51:21;94544.91;;;16.10;57.84
11692;BME280;33659;42.672;23.354;2023-05-08T02:53:55;94551.34;;;16.13;57.35
11692;BME280;33659;42.672;23.354;2023-05-08T02:56:30;94547.94;;;16.12;57.13
11692;BME280;33659;42.672;23.354;2023-05-08T02:59:01;94539.16;;;16.01;57.42
11692;BME280;33659;42.672;23.354;2023-05-08T03:01:39;94544.09;;;16.06;57.32
11692;BME280;33659;42.672;23.354;2023-05-08T03:04:08;94554.28;;;16.08;57.14
11692;BME280;33659;42.672;23.354;2023-05-08T03:06:40;94551.63;;;16.04;57.54
11692;BME280;33659;42.672;23.354;2023-05-08T03:09:15;94553.13;;;16.05;57.66
11692;BME280;33659;42.672;23.354;2023-05-08T03:11:46;94550.19;;;16.10;57.46
11692;BME280;33659;42.672;23.354;2023-05-08T03:14:18;94556.25;;;16.14;57.53
11692;BME280;33659;42.672;23.354;2023-05-08T03:16:46;94526.28;;;15.96;57.32
11692;BME280;33659;42.672;23.354;2023-05-08T03:19:29;94553.53;;;16.07;57.00
11692;BME280;33659;42.672;23.354;2023-05-08T03:21:59;94556.88;;;16.04;57.21
11692;BME280;33659;42.672;23.354;2023-05-08T03:24:29;94559.56;;;16.08;57.37
11692;BME280;33659;42.672;23.354;2023-05-08T03:26:58;94570.44;;;16.06;57.05
11692;BME280;33659;42.672;23.354;2023-05-08T03:29:26;94564.78;;;16.04;57.26
11692;BME280;33659;42.672;23.354;2023-05-08T03:31:53;94566.91;;;15.95;57.48
11692;BME280;33659;42.672;23.354;2023-05-08T03:34:22;94565.00;;;15.92;57.83
11692;BME280;33659;42.672;23.354;2023-05-08T03:36:50;94574.03;;;15.91;58.29
11692;BME280;33659;42.672;23.354;2023-05-08T03:39:16;94573.38;;;16.01;58.20
11692;BME280;33659;42.672;23.354;2023-05-08T03:41:45;94570.53;;;16.13;57.90
11692;BME280;33659;42.672;23.354;2023-05-08T03:44:12;94564.66;;;16.23;57.86
11692;BME280;33659;42.672;23.354;2023-05-08T03:46:41;94564.75;;;16.31;57.10
11692;BME280;33659;42.672;23.354;2023-05-08T03:49:08;94563.94;;;16.27;56.94
11692;BME280;33659;42.672;23.354;2023-05-08T03:51:36;94566.97;;;16.29;57.25
11692;BME280;33659;42.672;23.354;2023-05-08T03:54:04;94554.81;;;16.20;57.31
11692;BME280;33659;42.672;23.354;2023-05-08T03:56:30;94573.13;;;16.40;57.09
11692;BME280;33659;42.672;23.354;2023-05-08T03:59:06;94572.13;;;16.51;57.71
11692;BME280;33659;42.672;23.354;2023-05-08T04:01:37;94563.84;;;16.49;57.12
11692;BME280;33659;42.672;23.354;2023-05-08T04:04:07;94571.91;;;16.67;56.67
11692;BME280;33659;42.672;23.354;2023-05-08T04:06:39;94579.91;;;16.71;56.02
11692;BME280;33659;42.672;23.354;2023-05-08T04:09:15;94584.13;;;16.79;55.93
11692;BME280;33659;42.672;23.354;2023-05-08T04:11:49;94585.69;;;16.84;55.47
11692;BME280;33659;42.672;23.354;2023-05-08T04:14:20;94580.44;;;16.84;55.32
11692;BME280;33659;42.672;23.354;2023-05-08T04:16:51;94589.84;;;16.85;55.08
11692;BME280;33659;42.672;23.354;2023-05-08T04:19:22;94586.03;;;16.78;55.50
11692;BME280;33659;42.672;23.354;2023-05-08T04:21:52;94592.41;;;16.77;55.19
11692;BME280;33659;42.672;23.354;2023-05-08T04:24:21;94589.41;;;16.79;55.77
11692;BME280;33659;42.672;23.354;2023-05-08T04:26:49;94593.25;;;16.85;55.53
11692;BME280;33659;42.672;23.354;2023-05-08T04:29:18;94597.06;;;16.88;54.91
11692;BME280;33659;42.672;23.354;2023-05-08T04:31:46;94591.78;;;16.88;54.59
11692;BME280;33659;42.672;23.354;2023-05-08T04:34:15;94598.97;;;16.91;54.86
11692;BME280;33659;42.672;23.354;2023-05-08T04:36:42;94595.97;;;16.92;54.44
11692;BME280;33659;42.672;23.354;2023-05-08T04:39:09;94595.63;;;16.94;54.80
11692;BME280;33659;42.672;23.354;2023-05-08T04:41:36;94585.81;;;16.94;54.68
11692;BME280;33659;42.672;23.354;2023-05-08T04:44:03;94586.50;;;16.88;54.41
11692;BME280;33659;42.672;23.354;2023-05-08T04:46:31;94581.88;;;16.77;55.16
11692;BME280;33659;42.672;23.354;2023-05-08T04:48:58;94578.41;;;16.70;55.20
11692;BME280;33659;42.672;23.354;2023-05-08T04:51:24;94571.25;;;16.70;55.75
11692;BME280;33659;42.672;23.354;2023-05-08T04:53:51;94577.72;;;16.76;55.49
11692;BME280;33659;42.672;23.354;2023-05-08T04:56:18;94569.50;;;16.82;55.12
11692;BME280;33659;42.672;23.354;2023-05-08T04:58:45;94580.50;;;16.91;54.84
11692;BME280;33659;42.672;23.354;2023-05-08T05:01:11;94583.19;;;16.98;54.76
11692;BME280;33659;42.672;23.354;2023-05-08T05:03:39;94579.56;;;17.10;54.32
11692;BME280;33659;42.672;23.354;2023-05-08T05:06:06;94581.06;;;17.11;54.44
11692;BME280;33659;42.672;23.354;2023-05-08T05:08:33;94574.00;;;17.22;54.07
11692;BME280;33659;42.672;23.354;2023-05-08T05:10:59;94569.13;;;17.24;54.12
11692;BME280;33659;42.672;23.354;2023-05-08T05:13:26;94566.94;;;17.33;53.90
11692;BME280;33659;42.672;23.354;2023-05-08T05:15:53;94572.66;;;17.42;54.34
11692;BME280;33659;42.672;23.354;2023-05-08T05:18:20;94565.16;;;17.48;54.16
11692;BME280;33659;42.672;23.354;2023-05-08T05:20:48;94571.69;;;17.61;54.15
11692;BME280;33659;42.672;23.354;2023-05-08T05:23:15;94564.94;;;17.71;53.64
11692;BME280;33659;42.672;23.354;2023-05-08T05:25:41;94572.09;;;17.67;52.85
11692;BME280;33659;42.672;23.354;2023-05-08T05:28:08;94565.13;;;17.41;53.16
11692;BME280;33659;42.672;23.354;2023-05-08T05:30:34;94569.16;;;17.27;53.63
11692;BME280;33659;42.672;23.354;2023-05-08T05:33:01;94565.66;;;17.16;54.57
11692;BME280;33659;42.672;23.354;2023-05-08T05:35:28;94570.25;;;17.23;55.25
11692;BME280;33659;42.672;23.354;2023-05-08T05:37:56;94571.88;;;17.38;54.92
11692;BME280;33659;42.672;23.354;2023-05-08T05:40:22;94566.31;;;17.47;54.27
11692;BME280;33659;42.672;23.354;2023-05-08T05:42:49;94569.47;;;17.67;53.51
11692;BME280;33659;42.672;23.354;2023-05-08T05:45:16;94568.03;;;17.76;53.50
11692;BME280;33659;42.672;23.354;2023-05-08T05:47:43;94570.00;;;17.90;54.00
11692;BME280;33659;42.672;23.354;2023-05-08T05:50:11;94564.06;;;18.04;52.26
11692;BME280;33659;42.672;23.354;2023-05-08T05:52:37;94565.25;;;18.13;52.68
11692;BME280;33659;42.672;23.354;2023-05-08T05:55:06;94569.81;;;18.20;52.41
11692;BME280;33659;42.672;23.354;2023-05-08T05:57:33;94565.34;;;18.31;52.52
11692;BME280;33659;42.672;23.354;2023-05-08T06:00:00;94560.84;;;18.43;52.00
11692;BME280;33659;42.672;23.354;2023-05-08T06:02:26;94552.16;;;18.46;51.31
11692;BME280;33659;42.672;23.354;2023-05-08T06:04:53;94555.47;;;18.28;51.40
11692;BME280;33659;42.672;23.354;2023-05-08T06:07:20;94556.63;;;18.24;52.27
11692;BME280;33659;42.672;23.354;2023-05-08T06:09:46;94557.38;;;18.24;52.33
11692;BME280;33659;42.672;23.354;2023-05-08T06:12:16;94556.53;;;18.09;52.46
11692;BME280;33659;42.672;23.354;2023-05-08T06:14:43;94551.28;;;18.13;52.72
11692;BME280;33659;42.672;23.354;2023-05-08T06:17:10;94547.88;;;18.12;52.49
11692;BME280;33659;42.672;23.354;2023-05-08T06:19:36;94552.78;;;18.14;52.41
11692;BME280;33659;42.672;23.354;2023-05-08T06:22:03;94548.59;;;18.06;51.88
11692;BME280;33659;42.672;23.354;2023-05-08T06:24:30;94551.94;;;17.96;52.48
11692;BME280;33659;42.672;23.354;2023-05-08T06:26:57;94548.88;;;17.90;52.70
11692;BME280;33659;42.672;23.354;2023-05-08T06:29:25;94546.97;;;17.87;53.35
11692;BME280;33659;42.672;23.354;2023-05-08T06:31:52;94553.44;;;17.93;53.97
11692;BME280;33659;42.672;23.354;2023-05-08T06:34:19;94555.72;;;17.98;53.61
11692;BME280;33659;42.672;23.354;2023-05-08T06:36:46;94554.22;;;18.01;53.73
11692;BME280;33659;42.672;23.354;2023-05-08T06:39:13;94553.53;;;18.14;53.01
11692;BME280;33659;42.672;23.354;2023-05-08T06:41:40;94551.31;;;18.27;52.40
11692;BME280;33659;42.672;23.354;2023-05-08T06:44:06;94545.31;;;18.34;52.53
11692;BME280;33659;42.672;23.354;2023-05-08T06:46:34;94552.16;;;18.46;52.13
11692;BME280;33659;42.672;23.354;2023-05-08T06:49:01;94555.59;;;18.53;52.02
11692;BME280;33659;42.672;23.354;2023-05-08T06:51:28;94551.06;;;18.61;52.11
11692;BME280;33659;42.672;23.354;2023-05-08T06:53:55;94559.47;;;18.70;51.94
11692;BME280;33659;42.672;23.354;2023-05-08T06:56:22;94554.19;;;18.84;51.37
11692;BME280;33659;42.672;23.354;2023-05-08T06:58:49;94542.88;;;18.87;51.34
11692;BME280;33659;42.672;23.354;2023-05-08T07:01:15;94545.13;;;18.82;51.24
11692;BME280;33659;42.672;23.354;2023-05-08T07:03:43;94554.16;;;18.74;51.68
11692;BME280;33659;42.672;23.354;2023-05-08T07:06:10;94560.53;;;18.62;52.28
11692;BME280;33659;42.672;23.354;2023-05-08T07:08:37;94565.13;;;18.72;52.19
11692;BME280;33659;42.672;23.354;2023-05-08T07:11:04;94564.41;;;18.82;51.77
11692;BME280;33659;42.672;23.354;2023-05-08T07:13:30;94562.50;;;18.83;51.63
11692;BME280;33659;42.672;23.354;2023-05-08T07:15:57;94564.03;;;18.87;51.51
11692;BME280;33659;42.672;23.354;2023-05-08T07:18:24;94561.75;;;18.93;51.45
11692;BME280;33659;42.672;23.354;2023-05-08T07:20:52;94563.66;;;19.00;51.38
11692;BME280;33659;42.672;23.354;2023-05-08T07:23:19;94561.41;;;19.05;51.31
11692;BME280;33659;42.672;23.354;2023-05-08T07:25:46;94565.22;;;19.11;50.75
11692;BME280;33659;42.672;23.354;2023-05-08T07:28:12;94553.88;;;19.00;50.49
11692;BME280;33659;42.672;23.354;2023-05-08T07:30:39;94561.41;;;18.87;50.69
11692;BME280;33659;42.672;23.354;2023-05-08T07:33:06;94564.06;;;18.94;50.63
11692;BME280;33659;42.672;23.354;2023-05-08T07:35:32;94564.06;;;18.98;50.47
11692;BME280;33659;42.672;23.354;2023-05-08T07:38:00;94556.13;;;19.02;50.29
11692;BME280;33659;42.672;23.354;2023-05-08T07:40:27;94556.91;;;19.13;50.00
11692;BME280;33659;42.672;23.354;2023-05-08T07:42:54;94558.03;;;19.23;50.07
11692;BME280;33659;42.672;23.354;2023-05-08T07:45:21;94560.69;;;19.26;49.83
11692;BME280;33659;42.672;23.354;2023-05-08T07:47:48;94558.06;;;19.26;49.80
11692;BME280;33659;42.672;23.354;2023-05-08T07:50:15;94556.91;;;19.24;49.39
11692;BME280;33659;42.672;23.354;2023-05-08T07:52:42;94560.69;;;19.15;49.57
11692;BME280;33659;42.672;23.354;2023-05-08T07:55:11;94570.13;;;19.16;49.86
11692;BME280;33659;42.672;23.354;2023-05-08T07:57:38;94567.09;;;19.18;49.87
11692;BME280;33659;42.672;23.354;2023-05-08T08:00:05;94568.63;;;19.08;49.42
11692;BME280;33659;42.672;23.354;2023-05-08T08:02:32;94573.53;;;19.10;49.19
11692;BME280;33659;42.672;23.354;2023-05-08T08:04:59;94570.53;;;19.15;49.31
11692;BME280;33659;42.672;23.354;2023-05-08T08:07:26;94575.06;;;19.29;49.26
11692;BME280;33659;42.672;23.354;2023-05-08T08:09:52;94567.50;;;19.31;49.34
11692;BME280;33659;42.672;23.354;2023-05-08T08:12:21;94566.75;;;19.34;49.41
11692;BME280;33659;42.672;23.354;2023-05-08T08:14:48;94569.03;;;19.39;49.43
11692;BME280;33659;42.672;23.354;2023-05-08T08:17:14;94575.81;;;19.51;49.33
11692;BME280;33659;42.672;23.354;2023-05-08T08:19:41;94560.69;;;19.55;49.28
11692;BME280;33659;42.672;23.354;2023-05-08T08:22:08;94577.75;;;19.61;49.27
11692;BME280;33659;42.672;23.354;2023-05-08T08:24:34;94578.88;;;19.63;49.43
11692;BME280;33659;42.672;23.354;2023-05-08T08:27:01;94571.69;;;19.74;49.65
11692;BME280;33659;42.672;23.354;2023-05-08T08:29:31;94562.97;;;19.74;49.51
11692;BME280;33659;42.672;23.354;2023-05-08T08:32:00;94568.28;;;19.74;49.65
11692;BME280;33659;42.672;23.354;2023-05-08T08:34:28;94565.63;;;19.74;49.96
11692;BME280;33659;42.672;23.354;2023-05-08T08:36:54;94558.81;;;19.80;50.03
11692;BME280;33659;42.672;23.354;2023-05-08T08:39:21;94547.44;;;19.83;50.13
11692;BME280;33659;42.672;23.354;2023-05-08T08:41:48;94548.94;;;19.88;50.09
11692;BME280;33659;42.672;23.354;2023-05-08T08:44:14;94542.50;;;19.96;50.22
11692;BME280;33659;42.672;23.354;2023-05-08T08:46:50;94526.66;;;19.64;51.00
11692;BME280;33659;42.672;23.354;2023-05-08T08:49:17;94541.78;;;19.67;51.79
11692;BME280;33659;42.672;23.354;2023-05-08T08:51:48;94538.75;;;19.72;51.88
11692;BME280;33659;42.672;23.354;2023-05-08T08:54:19;94541.00;;;19.81;51.70
11692;BME280;33659;42.672;23.354;2023-05-08T08:56:48;94533.81;;;19.85;51.99
11692;BME280;33659;42.672;23.354;2023-05-08T08:59:16;94525.47;;;19.86;51.94
11692;BME280;33659;42.672;23.354;2023-05-08T09:01:47;94528.13;;;19.86;51.96
11692;BME280;33659;42.672;23.354;2023-05-08T09:04:16;94506.94;;;19.86;51.87
11692;BME280;33659;42.672;23.354;2023-05-08T09:06:43;94519.38;;;20.04;51.68
11692;BME280;33659;42.672;23.354;2023-05-08T09:09:11;94518.59;;;20.07;51.51
11692;BME280;33659;42.672;23.354;2023-05-08T09:11:38;94514.06;;;20.07;51.83
11692;BME280;33659;42.672;23.354;2023-05-08T09:14:05;94505.34;;;20.07;51.60
11692;BME280;33659;42.672;23.354;2023-05-08T09:16:35;94499.31;;;19.99;51.91
11692;BME280;33659;42.672;23.354;2023-05-08T09:19:06;94498.94;;;20.04;51.87
11692;BME280;33659;42.672;23.354;2023-05-08T09:21:34;94499.69;;;20.01;51.71
11692;BME280;33659;42.672;23.354;2023-05-08T09:24:03;94499.28;;;20.02;51.69
11692;BME280;33659;42.672;23.354;2023-05-08T09:26:32;94486.44;;;20.05;51.71
11692;BME280;33659;42.672;23.354;2023-05-08T09:29:13;94478.47;;;20.05;52.02
11692;BME280;33659;42.672;23.354;2023-05-08T09:31:46;94469.78;;;20.00;52.25
11692;BME280;33659;42.672;23.354;2023-05-08T09:34:25;94475.06;;;20.04;52.21
11692;BME280;33659;42.672;23.354;2023-05-08T09:36:52;94481.09;;;20.12;51.81
11692;BME280;33659;42.672;23.354;2023-05-08T09:39:21;94486.38;;;20.15;51.67
11692;BME280;33659;42.672;23.354;2023-05-08T09:41:56;94485.97;;;20.24;51.36
11692;BME280;33659;42.672;23.354;2023-05-08T09:44:23;94493.91;;;20.31;51.60
11692;BME280;33659;42.672;23.354;2023-05-08T09:46:49;94495.41;;;20.32;51.44
11692;BME280;33659;42.672;23.354;2023-05-08T09:49:17;94499.94;;;20.35;51.70
11692;BME280;33659;42.672;23.354;2023-05-08T09:51:51;94509.78;;;20.35;51.94
11692;BME280;33659;42.672;23.354;2023-05-08T09:54:19;94510.94;;;20.37;52.13
11692;BME280;33659;42.672;23.354;2023-05-08T09:56:46;94504.47;;;20.42;51.81
11692;BME280;33659;42.672;23.354;2023-05-08T09:59:23;94493.88;;;20.38;52.00
11692;BME280;33659;42.672;23.354;2023-05-08T10:01:50;94498.41;;;20.45;51.92
11692;BME280;33659;42.672;23.354;2023-05-08T10:04:17;94494.97;;;20.51;51.81
11692;BME280;33659;42.672;23.354;2023-05-08T10:06:56;94490.38;;;20.63;51.67
11692;BME280;33659;42.672;23.354;2023-05-08T10:09:23;94492.56;;;20.71;51.25
11692;BME280;33659;42.672;23.354;2023-05-08T10:11:51;94494.44;;;20.78;51.51
11692;BME280;33659;42.672;23.354;2023-05-08T10:14:20;94492.88;;;20.88;51.22
11692;BME280;33659;42.672;23.354;2023-05-08T10:16:48;94494.38;;;20.85;51.08
11692;BME280;33659;42.672;23.354;2023-05-08T10:19:18;94488.31;;;20.88;51.19
11692;BME280;33659;42.672;23.354;2023-05-08T10:21:46;94482.22;;;20.91;51.10
11692;BME280;33659;42.672;23.354;2023-05-08T10:24:16;94487.09;;;20.96;50.62
11692;BME280;33659;42.672;23.354;2023-05-08T10:26:49;94482.53;;;21.00;51.14
11692;BME280;33659;42.672;23.354;2023-05-08T10:29:26;94478.38;;;20.96;51.20
11692;BME280;33659;42.672;23.354;2023-05-08T10:31:55;94476.84;;;20.98;50.89
11692;BME280;33659;42.672;23.354;2023-05-08T10:34:26;94470.78;;;21.01;51.45
11692;BME280;33659;42.672;23.354;2023-05-08T10:36:53;94469.56;;;21.09;51.08
11692;BME280;33659;42.672;23.354;2023-05-08T10:41:48;94475.78;;;20.89;51.52
11692;BME280;33659;42.672;23.354;2023-05-08T10:44:15;94464.75;;;20.94;51.22
11692;BME280;33659;42.672;23.354;2023-05-08T10:46:48;94462.38;;;21.06;51.25
11692;BME280;33659;42.672;23.354;2023-05-08T10:49:22;94458.59;;;21.07;51.72
11692;BME280;33659;42.672;23.354;2023-05-08T10:51:57;94454.84;;;21.01;51.61
11692;BME280;33659;42.672;23.354;2023-05-08T10:54:41;94457.84;;;21.03;51.73
11692;BME280;33659;42.672;23.354;2023-05-08T10:57:14;94452.84;;;21.13;51.79
11692;BME280;33659;42.672;23.354;2023-05-08T10:59:44;94449.06;;;21.14;50.98
11692;BME280;33659;42.672;23.354;2023-05-08T11:02:11;94445.94;;;21.19;50.49
11692;BME280;33659;42.672;23.354;2023-05-08T11:04:38;94449.31;;;21.26;50.04
11692;BME280;33659;42.672;23.354;2023-05-08T11:07:05;94441.31;;;21.33;50.11
11692;BME280;33659;42.672;23.354;2023-05-08T11:09:46;94435.94;;;21.37;50.10
11692;BME280;33659;42.672;23.354;2023-05-08T11:12:20;94433.69;;;21.35;50.00
11692;BME280;33659;42.672;23.354;2023-05-08T11:14:58;94431.66;;;21.50;49.64
11692;BME280;33659;42.672;23.354;2023-05-08T11:17:26;94424.06;;;21.52;49.82
11692;BME280;33659;42.672;23.354;2023-05-08T11:19:57;94422.38;;;21.66;49.83
11692;BME280;33659;42.672;23.354;2023-05-08T11:22:28;94428.63;;;21.86;49.64
11692;BME280;33659;42.672;23.354;2023-05-08T11:25:00;94415.16;;;22.00;49.03
11692;BME280;33659;42.672;23.354;2023-05-08T11:28:09;94407.59;;;22.29;48.58
11692;BME280;33659;42.672;23.354;2023-05-08T11:30:37;94408.56;;;22.42;48.26
11692;BME280;33659;42.672;23.354;2023-05-08T11:33:34;94396.97;;;22.53;47.98
11692;BME280;33659;42.672;23.354;2023-05-08T11:36:11;94394.06;;;22.70;47.54
11692;BME280;33659;42.672;23.354;2023-05-08T11:38:39;94393.47;;;22.86;46.39
11692;BME280;33659;42.672;23.354;2023-05-08T11:41:08;94390.47;;;23.08;45.99
11692;BME280;33659;42.672;23.354;2023-05-08T11:43:57;94378.66;;;23.29;45.25
11692;BME280;33659;42.672;23.354;2023-05-08T11:46:37;94369.66;;;23.42;44.69
11692;BME280;33659;42.672;23.354;2023-05-08T11:49:05;94374.81;;;23.53;44.14
11692;BME280;33659;42.672;23.354;2023-05-08T11:51:35;94368.88;;;23.65;43.76
11692;BME280;33659;42.672;23.354;2023-05-08T11:54:03;94362.44;;;23.83;43.36
11692;BME280;33659;42.672;23.354;2023-05-08T11:56:32;94361.66;;;24.02;42.53
11692;BME280;33659;42.672;23.354;2023-05-08T11:59:03;94355.94;;;24.20;42.37
11692;BME280;33659;42.672;23.354;2023-05-08T12:01:30;94352.91;;;24.38;41.82
11692;BME280;33659;42.672;23.354;2023-05-08T12:04:01;94340.56;;;24.44;41.14
11692;BME280;33659;42.672;23.354;2023-05-08T12:06:29;94346.22;;;24.29;41.05
11692;BME280;33659;42.672;23.354;2023-05-08T12:08:57;94341.63;;;24.30;41.08
11692;BME280;33659;42.672;23.354;2023-05-08T12:11:24;94347.66;;;24.14;41.20
11692;BME280;33659;42.672;23.354;2023-05-08T12:13:53;94337.31;;;24.00;41.74
11692;BME280;33659;42.672;23.354;2023-05-08T12:16:21;94334.47;;;23.91;41.97
11692;BME280;33659;42.672;23.354;2023-05-08T12:18:49;94337.91;;;23.71;42.38
11692;BME280;33659;42.672;23.354;2023-05-08T12:21:16;94341.06;;;23.66;42.74
11692;BME280;33659;42.672;23.354;2023-05-08T12:23:42;94344.06;;;23.68;42.45
11692;BME280;33659;42.672;23.354;2023-05-08T12:26:09;94332.84;;;23.77;42.50
11692;BME280;33659;42.672;23.354;2023-05-08T12:28:37;94332.75;;;23.81;41.91
11692;BME280;33659;42.672;23.354;2023-05-08T12:31:06;94336.75;;;23.72;42.53
11692;BME280;33659;42.672;23.354;2023-05-08T12:33:33;94334.97;;;23.46;42.11
11692;BME280;33659;42.672;23.354;2023-05-08T12:36:00;94300.31;;;23.06;42.28
11692;BME280;33659;42.672;23.354;2023-05-08T12:38:27;94334.03;;;22.93;43.08
11692;BME280;33659;42.672;23.354;2023-05-08T12:40:54;94344.06;;;22.82;43.17
11692;BME280;33659;42.672;23.354;2023-05-08T12:43:30;94344.41;;;22.84;43.05
11692;BME280;33659;42.672;23.354;2023-05-08T12:45:56;94326.66;;;23.01;43.02
11692;BME280;33659;42.672;23.354;2023-05-08T12:48:25;94344.47;;;23.04;42.66
11692;BME280;33659;42.672;23.354;2023-05-08T12:50:53;94330.06;;;23.01;43.13
11692;BME280;33659;42.672;23.354;2023-05-08T12:53:20;94323.44;;;22.86;43.70
11692;BME280;33659;42.672;23.354;2023-05-08T12:55:52;94334.22;;;22.79;43.84
11692;BME280;33659;42.672;23.354;2023-05-08T12:58:21;94325.53;;;22.51;44.60
11692;BME280;33659;42.672;23.354;2023-05-08T13:00:50;94331.53;;;22.32;45.33
11692;BME280;33659;42.672;23.354;2023-05-08T13:03:21;94326.31;;;22.25;45.06
11692;BME280;33659;42.672;23.354;2023-05-08T13:05:51;94315.25;;;22.26;45.63
11692;BME280;33659;42.672;23.354;2023-05-08T13:08:18;94296.50;;;22.37;47.71